createdAt,value
2019-02-27T00:00:16.251Z,4.63
2019-02-27T00:02:49.555Z,4.33
2019-02-27T00:05:22.954Z,4.50
2019-02-27T00:07:56.348Z,4.70
2019-02-27T00:10:29.669Z,4.43
2019-02-27T00:13:03.044Z,4.50
2019-02-27T00:15:37.961Z,5.17
2019-02-27T00:18:11.486Z,4.83
2019-02-27T00:20:44.816Z,4.97
2019-02-27T00:23:18.107Z,4.67
2019-02-27T00:25:51.401Z,4.80
2019-02-27T00:28:24.713Z,4.67
2019-02-27T00:30:58.071Z,4.60
2019-02-27T00:33:31.420Z,5.40
2019-02-27T00:36:04.806Z,4.60
2019-02-27T00:38:38.120Z,5.00
2019-02-27T00:41:12.796Z,5.10
2019-02-27T00:43:46.483Z,5.20
2019-02-27T00:46:19.811Z,4.53
2019-02-27T00:48:53.107Z,4.40
2019-02-27T00:51:26.453Z,4.60
2019-02-27T00:53:59.780Z,4.27
2019-02-27T00:56:33.085Z,4.53
2019-02-27T00:59:06.395Z,5.00
2019-02-27T01:01:39.781Z,3.90
2019-02-27T01:04:13.114Z,4.73
2019-02-27T01:06:47.470Z,4.70
2019-02-27T01:09:21.539Z,4.53
2019-02-27T01:11:54.854Z,4.67
2019-02-27T01:14:28.266Z,4.37
2019-02-27T01:17:01.566Z,4.90
2019-02-27T01:19:38.285Z,4.67
2019-02-27T01:22:09.915Z,5.00
2019-02-27T01:24:43.240Z,4.67
2019-02-27T01:27:16.580Z,4.83
2019-02-27T01:29:51.601Z,4.93
2019-02-27T01:32:25.189Z,4.57
2019-02-27T01:34:58.526Z,4.70
2019-02-27T01:37:32.333Z,4.77
2019-02-27T01:40:09.135Z,4.70
2019-02-27T01:42:42.438Z,4.40
2019-02-27T01:45:20.769Z,4.63
2019-02-27T01:47:51.438Z,4.43
2019-02-27T01:50:32.862Z,3.57
2019-02-27T01:53:07.416Z,3.77
2019-02-27T01:55:41.498Z,4.47
2019-02-27T01:58:14.832Z,4.33
2019-02-27T02:00:48.128Z,4.37
2019-02-27T02:03:21.415Z,4.17
2019-02-27T02:05:58.761Z,4.33
2019-02-27T02:08:29.865Z,4.60
2019-02-27T02:11:03.176Z,4.40
2019-02-27T02:13:39.672Z,4.43
2019-02-27T02:16:28.262Z,4.10
2019-02-27T02:19:07.281Z,4.33
2019-02-27T02:21:49.883Z,4.67
2019-02-27T02:24:41.381Z,4.20
2019-02-27T02:27:26.789Z,4.27
2019-02-27T02:30:29.321Z,4.03
2019-02-27T02:33:17.909Z,4.33
2019-02-27T02:35:57.444Z,4.60
2019-02-27T02:39:04.556Z,4.43
2019-02-27T02:41:58.957Z,4.37
2019-02-27T02:44:41.029Z,4.80
2019-02-27T02:47:21.285Z,4.53
2019-02-27T02:50:22.553Z,4.67
2019-02-27T02:52:59.048Z,4.73
2019-02-27T02:55:54.484Z,4.40
2019-02-27T02:58:39.776Z,4.70
2019-02-27T03:01:16.228Z,4.40
2019-02-27T03:04:12.975Z,4.37
2019-02-27T03:06:53.977Z,4.07
2019-02-27T03:09:36.103Z,3.97
2019-02-27T03:12:18.659Z,4.03
2019-02-27T03:15:06.863Z,4.80
2019-02-27T03:18:10.777Z,3.73
2019-02-27T03:20:52.385Z,4.43
2019-02-27T03:23:51.052Z,4.40
2019-02-27T03:26:31.656Z,4.47
2019-02-27T03:29:35.550Z,4.23
2019-02-27T03:32:20.861Z,4.73
2019-02-27T03:35:02.970Z,4.50
2019-02-27T03:37:39.483Z,4.10
2019-02-27T03:40:27.939Z,3.93
2019-02-27T03:43:19.030Z,4.57
2019-02-27T03:46:10.452Z,4.80
2019-02-27T03:48:46.948Z,4.57
2019-02-27T03:51:41.374Z,4.63
2019-02-27T03:54:21.161Z,3.90
2019-02-27T03:57:18.931Z,4.90
2019-02-27T04:00:10.642Z,5.00
2019-02-27T04:02:59.267Z,4.40
2019-02-27T04:05:59.622Z,4.50
2019-02-27T04:08:45.046Z,4.07
2019-02-27T04:11:18.645Z,4.50
2019-02-27T04:13:52.066Z,4.20
2019-02-27T04:16:29.007Z,4.83
2019-02-27T04:19:04.641Z,4.60
2019-02-27T04:21:35.612Z,4.40
2019-02-27T04:24:08.928Z,4.93
2019-02-27T04:26:42.716Z,4.63
2019-02-27T04:29:16.037Z,4.67
2019-02-27T04:31:49.356Z,4.27
2019-02-27T04:34:22.645Z,4.80
2019-02-27T04:36:55.973Z,4.70
2019-02-27T04:39:29.268Z,4.33
2019-02-27T04:42:02.605Z,4.77
2019-02-27T04:44:38.847Z,4.73
2019-02-27T04:47:11.029Z,4.80
2019-02-27T04:49:44.341Z,4.13
2019-02-27T04:52:19.307Z,4.70
2019-02-27T04:54:52.718Z,4.70
2019-02-27T04:57:26.072Z,4.37
2019-02-27T04:59:59.402Z,5.27
2019-02-27T05:02:32.726Z,6.30
2019-02-27T05:05:08.633Z,6.17
2019-02-27T05:07:42.647Z,6.17
2019-02-27T05:10:15.991Z,5.43
2019-02-27T05:12:49.346Z,5.37
2019-02-27T05:15:22.684Z,5.17
2019-02-27T05:17:56.302Z,6.10
2019-02-27T05:20:29.790Z,5.90
2019-02-27T05:23:03.190Z,5.90
2019-02-27T05:25:36.509Z,5.07
2019-02-27T05:28:09.851Z,6.70
2019-02-27T05:30:45.222Z,5.53
2019-02-27T05:33:18.273Z,6.30
2019-02-27T05:35:51.669Z,6.87
2019-02-27T05:38:25.091Z,6.40
2019-02-27T05:40:59.995Z,6.03
2019-02-27T05:43:33.493Z,6.10
2019-02-27T05:46:06.775Z,5.63
2019-02-27T05:48:40.271Z,6.63
2019-02-27T05:51:13.574Z,6.03
2019-02-27T05:53:46.946Z,7.03
2019-02-27T05:56:20.264Z,7.07
2019-02-27T05:58:55.898Z,6.67
2019-02-27T06:01:28.650Z,6.00
2019-02-27T06:04:01.968Z,6.43
2019-02-27T06:06:35.314Z,6.50
2019-02-27T06:09:10.397Z,6.50
2019-02-27T06:11:43.848Z,6.97
2019-02-27T06:14:21.124Z,6.97
2019-02-27T06:16:52.364Z,7.43
2019-02-27T06:19:25.711Z,6.50
2019-02-27T06:21:59.230Z,6.03
2019-02-27T06:24:35.678Z,6.60
2019-02-27T06:27:08.993Z,9.60
2019-02-27T06:29:42.319Z,7.80
2019-02-27T06:32:15.596Z,6.87
2019-02-27T06:34:48.986Z,7.43
2019-02-27T06:37:22.307Z,6.63
2019-02-27T06:39:55.659Z,7.00
2019-02-27T06:42:29.105Z,6.87
2019-02-27T06:45:02.456Z,7.20
2019-02-27T06:47:36.224Z,7.60
2019-02-27T06:50:13.003Z,6.80
2019-02-27T06:52:46.413Z,6.83
2019-02-27T06:55:19.902Z,6.40
2019-02-27T06:57:53.273Z,7.20
2019-02-27T07:00:26.570Z,7.07
2019-02-27T07:02:59.921Z,7.37
2019-02-27T07:05:33.239Z,7.03
2019-02-27T07:08:08.284Z,8.40
2019-02-27T07:10:41.590Z,8.63
2019-02-27T07:13:14.913Z,7.83
2019-02-27T07:15:48.857Z,8.93
2019-02-27T07:18:22.419Z,7.80
2019-02-27T07:20:58.274Z,8.77
2019-02-27T07:23:30.785Z,10.43
2019-02-27T07:26:04.092Z,10.73
2019-02-27T07:28:37.521Z,10.83
2019-02-27T07:31:12.422Z,10.37
2019-02-27T07:33:46.021Z,11.17
2019-02-27T07:36:19.522Z,11.77
2019-02-27T07:38:57.186Z,12.10
2019-02-27T07:41:28.021Z,11.13
2019-02-27T07:44:01.358Z,11.87
2019-02-27T07:46:35.613Z,10.77
2019-02-27T07:49:09.145Z,9.97
2019-02-27T07:51:42.742Z,10.57
2019-02-27T07:54:15.995Z,10.03
2019-02-27T07:56:49.286Z,9.43
2019-02-27T07:59:22.612Z,9.77
2019-02-27T08:01:55.886Z,8.10
2019-02-27T08:04:29.244Z,8.20
2019-02-27T08:07:02.529Z,7.97
2019-02-27T08:09:35.934Z,7.47
2019-02-27T08:12:09.596Z,8.40
2019-02-27T08:14:43.042Z,8.73
2019-02-27T08:17:17.824Z,8.90
2019-02-27T08:19:51.415Z,8.60
2019-02-27T08:22:24.742Z,7.03
2019-02-27T08:24:58.135Z,7.73
2019-02-27T08:27:31.506Z,6.90
2019-02-27T08:30:08.078Z,7.30
2019-02-27T08:32:41.373Z,6.60
2019-02-27T08:35:16.623Z,7.67
2019-02-27T08:37:49.752Z,7.30
2019-02-27T08:40:25.144Z,6.70
2019-02-27T08:42:58.130Z,7.87
2019-02-27T08:45:31.485Z,7.80
2019-02-27T08:48:04.919Z,7.97
2019-02-27T08:50:38.220Z,7.83
2019-02-27T08:53:11.610Z,7.53
2019-02-27T08:55:45.104Z,7.77
2019-02-27T08:58:18.485Z,7.97
2019-02-27T09:00:51.972Z,7.73
2019-02-27T09:03:25.269Z,7.73
2019-02-27T09:05:58.573Z,7.80
2019-02-27T09:08:31.939Z,7.83
2019-02-27T09:11:06.631Z,7.50
2019-02-27T09:13:40.148Z,8.47
2019-02-27T09:16:13.453Z,7.67
2019-02-27T09:18:46.790Z,8.37
2019-02-27T09:21:20.140Z,7.93
2019-02-27T09:23:53.537Z,7.90
2019-02-27T09:26:26.845Z,8.40
2019-02-27T09:29:00.138Z,8.57
2019-02-27T09:31:34.718Z,8.00
2019-02-27T09:34:08.559Z,8.40
2019-02-27T09:36:43.294Z,7.73
2019-02-27T09:39:16.901Z,8.13
2019-02-27T09:41:51.242Z,7.83
2019-02-27T09:44:24.754Z,8.23
2019-02-27T09:46:58.135Z,9.07
2019-02-27T09:49:31.420Z,8.63
2019-02-27T09:52:04.827Z,8.20
2019-02-27T09:54:38.113Z,8.70
2019-02-27T09:57:11.445Z,8.63
2019-02-27T09:59:44.760Z,8.03
2019-02-27T10:02:18.117Z,9.23
2019-02-27T10:04:51.409Z,8.40
2019-02-27T10:07:24.883Z,8.30
2019-02-27T10:09:58.178Z,8.20
2019-02-27T10:12:31.731Z,9.07
2019-02-27T10:15:06.005Z,8.23
2019-02-27T10:17:41.084Z,7.90
2019-02-27T10:20:14.454Z,8.67
2019-02-27T10:22:47.812Z,8.60
2019-02-27T10:25:21.132Z,8.77
2019-02-27T10:27:54.467Z,8.50
2019-02-27T10:30:27.902Z,8.83
2019-02-27T10:33:03.264Z,9.17
2019-02-27T10:35:36.418Z,9.17
2019-02-27T10:38:09.809Z,8.90
2019-02-27T10:40:45.986Z,8.63
2019-02-27T10:43:18.357Z,9.47
2019-02-27T10:45:51.673Z,9.20
2019-02-27T10:48:25.099Z,9.47
2019-02-27T10:50:58.501Z,10.27
2019-02-27T10:53:31.848Z,10.00
2019-02-27T10:56:05.246Z,9.40
2019-02-27T10:58:38.684Z,9.03
2019-02-27T11:01:12.065Z,10.07
2019-02-27T11:03:45.420Z,10.03
2019-02-27T11:06:18.812Z,9.77
2019-02-27T11:08:52.249Z,10.50
2019-02-27T11:11:25.703Z,8.87
2019-02-27T11:13:59.029Z,10.03
2019-02-27T11:16:32.382Z,9.77
2019-02-27T11:19:05.785Z,10.30
2019-02-27T11:21:39.157Z,10.43
2019-02-27T11:24:14.546Z,9.83
2019-02-27T11:26:47.632Z,9.47
2019-02-27T11:29:23.572Z,10.00
2019-02-27T11:31:56.018Z,10.43
2019-02-27T11:34:29.380Z,9.77
2019-02-27T11:37:04.323Z,9.87
2019-02-27T11:39:37.744Z,10.43
2019-02-27T11:42:11.254Z,10.13
2019-02-27T11:44:49.420Z,10.93
2019-02-27T11:47:19.772Z,10.73
2019-02-27T11:49:53.209Z,10.13
2019-02-27T11:52:28.642Z,10.47
2019-02-27T11:55:01.654Z,10.20
2019-02-27T11:57:34.983Z,10.03
2019-02-27T12:00:14.256Z,10.40
2019-02-27T12:02:47.585Z,10.93
2019-02-27T12:05:21.055Z,10.40
2019-02-27T12:07:54.732Z,11.10
2019-02-27T12:10:31.047Z,10.50
2019-02-27T12:13:04.646Z,10.20
2019-02-27T12:15:38.177Z,10.37
2019-02-27T12:18:11.940Z,10.47
2019-02-27T12:20:45.484Z,10.83
2019-02-27T12:23:19.071Z,11.17
2019-02-27T12:25:52.579Z,11.30
2019-02-27T12:28:27.736Z,10.47
2019-02-27T12:31:01.327Z,10.03
2019-02-27T12:33:34.823Z,10.23
2019-02-27T12:36:09.020Z,9.30
2019-02-27T12:38:42.623Z,10.33
2019-02-27T12:41:16.060Z,10.73
2019-02-27T12:43:52.676Z,10.60
2019-02-27T12:46:24.560Z,9.63
2019-02-27T12:48:57.910Z,10.60
2019-02-27T12:51:31.305Z,11.40
2019-02-27T12:54:04.796Z,10.97
2019-02-27T12:56:41.534Z,10.53
2019-02-27T12:59:13.293Z,11.53
2019-02-27T13:01:50.798Z,10.47
2019-02-27T13:04:21.802Z,11.50
2019-02-27T13:06:55.181Z,10.77
2019-02-27T13:09:28.527Z,10.43
2019-02-27T13:12:01.871Z,10.60
2019-02-27T13:14:35.186Z,10.17
2019-02-27T13:17:08.596Z,10.10
2019-02-27T13:19:41.937Z,10.67
2019-02-27T13:22:15.298Z,10.17
2019-02-27T13:24:50.300Z,10.03
2019-02-27T13:27:25.161Z,10.23
2019-02-27T13:30:08.504Z,9.70
2019-02-27T13:32:33.852Z,9.67
2019-02-27T13:35:08.138Z,9.90
2019-02-27T13:37:44.510Z,10.27
2019-02-27T13:40:25.727Z,9.93
2019-02-27T13:43:00.997Z,9.27
2019-02-27T13:45:34.178Z,9.27
2019-02-27T13:48:07.579Z,7.90
2019-02-27T13:50:41.016Z,8.93
2019-02-27T13:53:14.439Z,9.80
2019-02-27T13:55:48.869Z,9.93
2019-02-27T13:58:22.338Z,10.13
2019-02-27T14:00:55.970Z,9.57
2019-02-27T14:03:29.359Z,9.80
2019-02-27T14:06:02.795Z,11.13
2019-02-27T14:08:38.181Z,12.07
2019-02-27T14:11:11.708Z,12.30
2019-02-27T14:13:45.252Z,12.10
2019-02-27T14:16:18.849Z,13.17
2019-02-27T14:18:54.114Z,11.37
2019-02-27T14:21:27.843Z,11.13
2019-02-27T14:24:01.292Z,10.80
2019-02-27T14:26:34.624Z,10.93
2019-02-27T14:29:08.839Z,11.63
2019-02-27T14:31:43.494Z,10.50
2019-02-27T14:34:17.375Z,11.50
2019-02-27T14:36:50.787Z,10.27
2019-02-27T14:39:24.177Z,11.03
2019-02-27T14:41:57.468Z,10.30
2019-02-27T14:44:31.587Z,10.50
2019-02-27T14:47:05.553Z,11.07
2019-02-27T14:49:38.905Z,10.43
2019-02-27T14:52:14.305Z,9.63
2019-02-27T14:54:47.339Z,9.77
2019-02-27T14:57:20.629Z,9.40
2019-02-27T14:59:54.100Z,9.83
2019-02-27T15:02:27.436Z,8.33
2019-02-27T15:05:06.099Z,9.47
2019-02-27T15:07:35.850Z,9.17
2019-02-27T15:10:11.826Z,8.57
2019-02-27T15:12:45.145Z,8.57
2019-02-27T15:15:24.211Z,8.70
2019-02-27T15:17:57.593Z,9.20
2019-02-27T15:20:31.290Z,8.40
2019-02-27T15:23:04.893Z,8.43
2019-02-27T15:25:42.211Z,9.13
2019-02-27T15:28:13.286Z,9.53
2019-02-27T15:30:47.347Z,7.57
2019-02-27T15:33:20.717Z,8.70
2019-02-27T15:35:55.466Z,9.00
2019-02-27T15:38:29.177Z,8.77
2019-02-27T15:41:03.365Z,9.10
2019-02-27T15:43:36.844Z,8.53
2019-02-27T15:46:10.217Z,7.93
2019-02-27T15:48:43.584Z,8.13
2019-02-27T15:51:18.472Z,7.67
2019-02-27T15:53:52.082Z,7.90
2019-02-27T15:56:25.379Z,7.80
2019-02-27T15:58:59.304Z,8.37
2019-02-27T16:01:33.714Z,8.90
2019-02-27T16:04:07.285Z,8.67
2019-02-27T16:06:40.723Z,8.67
2019-02-27T16:09:15.434Z,8.70
2019-02-27T16:11:51.490Z,9.40
2019-02-27T16:14:23.881Z,8.60
2019-02-27T16:16:57.568Z,8.30
2019-02-27T16:19:31.479Z,8.47
2019-02-27T16:22:04.928Z,8.50
2019-02-27T16:24:40.404Z,7.70
2019-02-27T16:27:13.322Z,7.00
2019-02-27T16:29:46.644Z,8.10
2019-02-27T16:32:20.240Z,7.27
2019-02-27T16:34:53.739Z,7.90
2019-02-27T16:37:27.033Z,7.47
2019-02-27T16:40:00.349Z,7.83
2019-02-27T16:42:36.435Z,7.47
2019-02-27T16:45:14.051Z,7.47
2019-02-27T16:47:47.411Z,7.20
2019-02-27T16:50:24.750Z,7.30
2019-02-27T16:52:58.079Z,7.40
2019-02-27T16:55:36.029Z,7.97
2019-02-27T16:58:06.442Z,8.43
2019-02-27T17:00:39.898Z,8.03
2019-02-27T17:03:14.000Z,7.70
2019-02-27T17:05:49.675Z,8.50
2019-02-27T17:08:22.620Z,8.33
2019-02-27T17:10:55.955Z,8.50
2019-02-27T17:13:29.301Z,8.40
2019-02-27T17:16:03.398Z,8.90
2019-02-27T17:18:36.809Z,8.30
2019-02-27T17:21:10.117Z,8.00
2019-02-27T17:23:46.587Z,7.87
2019-02-27T17:26:18.864Z,7.30
2019-02-27T17:28:53.614Z,8.37
2019-02-27T17:31:26.952Z,7.70
2019-02-27T17:34:00.261Z,7.93
2019-02-27T17:36:33.660Z,8.40
2019-02-27T17:39:07.944Z,8.80
2019-02-27T17:41:41.861Z,8.77
2019-02-27T17:44:16.430Z,8.07
2019-02-27T17:46:51.683Z,6.60
2019-02-27T17:49:25.390Z,7.40
2019-02-27T17:51:59.818Z,7.00
2019-02-27T17:54:33.172Z,7.33
2019-02-27T17:57:06.565Z,7.13
2019-02-27T17:59:42.371Z,7.37
2019-02-27T18:02:15.077Z,7.37
2019-02-27T18:04:51.141Z,8.10
2019-02-27T18:07:23.507Z,7.90
2019-02-27T18:09:58.321Z,7.70
2019-02-27T18:12:31.846Z,6.50
2019-02-27T18:15:08.369Z,7.70
2019-02-27T18:17:41.687Z,8.30
2019-02-27T18:20:15.076Z,7.63
2019-02-27T18:22:49.555Z,8.40
2019-02-27T18:25:23.768Z,8.20
2019-02-27T18:27:59.529Z,7.30
2019-02-27T18:30:32.278Z,9.77
2019-02-27T18:33:05.711Z,11.30
2019-02-27T18:35:39.041Z,8.87
2019-02-27T18:38:12.447Z,9.37
2019-02-27T18:40:45.810Z,8.33
2019-02-27T18:43:19.085Z,8.53
2019-02-27T18:45:52.415Z,8.43
2019-02-27T18:48:25.730Z,8.67
2019-02-27T18:50:59.435Z,8.97
2019-02-27T18:53:32.641Z,8.93
2019-02-27T18:56:06.094Z,7.50
2019-02-27T18:58:39.436Z,8.87
2019-02-27T19:01:13.035Z,9.63
2019-02-27T19:03:46.454Z,9.47
2019-02-27T19:06:19.858Z,8.87
2019-02-27T19:08:53.159Z,6.90
2019-02-27T19:11:26.542Z,8.30
2019-02-27T19:14:02.404Z,7.70
2019-02-27T19:16:35.050Z,6.57
2019-02-27T19:19:08.462Z,8.60
2019-02-27T19:21:41.866Z,7.60
2019-02-27T19:24:15.267Z,8.60
2019-02-27T19:26:49.508Z,9.63
2019-02-27T19:29:22.893Z,10.50
2019-02-27T19:31:56.280Z,8.67
2019-02-27T19:34:29.656Z,7.90
2019-02-27T19:37:05.235Z,7.73
2019-02-27T19:39:38.114Z,7.67
2019-02-27T19:42:13.227Z,6.80
2019-02-27T19:44:46.520Z,8.70
2019-02-27T19:47:19.831Z,8.70
2019-02-27T19:49:53.177Z,8.43
2019-02-27T19:52:28.418Z,8.97
2019-02-27T19:55:01.640Z,7.90
2019-02-27T19:57:34.958Z,8.17
2019-02-27T20:00:23.712Z,7.00
2019-02-27T20:03:01.173Z,7.93
2019-02-27T20:05:32.250Z,6.70
2019-02-27T20:08:09.871Z,6.27
2019-02-27T20:10:40.827Z,7.07
2019-02-27T20:13:14.143Z,8.30
2019-02-27T20:15:47.525Z,6.53
2019-02-27T20:18:23.426Z,6.63
2019-02-27T20:20:55.995Z,7.17
2019-02-27T20:23:29.377Z,6.87
2019-02-27T20:26:02.841Z,6.30
2019-02-27T20:28:36.241Z,6.47
2019-02-27T20:31:09.609Z,5.93
2019-02-27T20:33:42.970Z,7.87
2019-02-27T20:36:16.276Z,8.40
2019-02-27T20:38:50.858Z,8.10
2019-02-27T20:41:24.624Z,7.50
2019-02-27T20:44:00.323Z,8.50
2019-02-27T20:46:33.058Z,8.37
2019-02-27T20:49:06.339Z,8.50
2019-02-27T20:51:40.621Z,9.03
2019-02-27T20:54:14.136Z,9.53
2019-02-27T20:56:55.360Z,9.00
2019-02-27T20:59:26.084Z,10.60
2019-02-27T21:01:57.587Z,10.13
2019-02-27T21:04:32.293Z,8.97
2019-02-27T21:07:06.218Z,9.10
2019-02-27T21:09:42.290Z,9.37
2019-02-27T21:12:14.650Z,9.97
2019-02-27T21:14:48.015Z,9.00
2019-02-27T21:17:21.855Z,10.90
2019-02-27T21:19:55.303Z,10.47
2019-02-27T21:22:28.654Z,9.93
2019-02-27T21:25:01.987Z,11.17
2019-02-27T21:27:35.305Z,10.70
2019-02-27T21:30:11.803Z,11.43
2019-02-27T21:32:45.152Z,12.10
2019-02-27T21:35:18.548Z,12.60
2019-02-27T21:37:51.933Z,12.33
2019-02-27T21:40:25.283Z,12.07
2019-02-27T21:42:58.602Z,13.13
2019-02-27T21:45:31.978Z,13.63
2019-02-27T21:48:05.370Z,15.63
2019-02-27T21:50:39.854Z,15.50
2019-02-27T21:53:13.870Z,15.47
2019-02-27T21:55:47.259Z,15.17
2019-02-27T21:58:20.850Z,14.27
2019-02-27T22:00:54.158Z,15.13
2019-02-27T22:03:27.560Z,13.90
2019-02-27T22:06:00.856Z,14.20
2019-02-27T22:08:36.042Z,12.93
2019-02-27T22:11:09.285Z,12.83
2019-02-27T22:13:45.346Z,11.40
2019-02-27T22:16:17.760Z,12.10
2019-02-27T22:18:51.065Z,12.43
2019-02-27T22:21:24.361Z,11.00
2019-02-27T22:23:57.900Z,11.53
2019-02-27T22:26:31.202Z,12.10
2019-02-27T22:29:04.523Z,11.40
2019-02-27T22:31:40.258Z,11.93
2019-02-27T22:34:12.912Z,10.40
2019-02-27T22:36:46.219Z,10.07
2019-02-27T22:39:19.527Z,9.20
2019-02-27T22:41:52.838Z,10.20
2019-02-27T22:44:26.341Z,10.07
2019-02-27T22:47:01.233Z,10.03
2019-02-27T22:49:34.559Z,9.63
2019-02-27T22:52:07.901Z,9.70
2019-02-27T22:54:41.203Z,9.20
2019-02-27T22:57:14.494Z,8.53
2019-02-27T22:59:47.800Z,9.20
2019-02-27T23:02:22.207Z,9.47
2019-02-27T23:04:55.668Z,9.27
2019-02-27T23:07:28.964Z,9.63
2019-02-27T23:10:02.441Z,10.03
2019-02-27T23:12:35.762Z,9.30
2019-02-27T23:15:09.425Z,9.47
2019-02-27T23:17:42.775Z,9.60
2019-02-27T23:20:17.509Z,9.20
2019-02-27T23:22:51.194Z,8.90
2019-02-27T23:25:24.500Z,8.70
2019-02-27T23:28:00.743Z,8.53
2019-02-27T23:30:32.961Z,8.40
2019-02-27T23:33:06.271Z,8.73
2019-02-27T23:35:39.631Z,8.33
2019-02-27T23:38:12.970Z,7.23
2019-02-27T23:40:49.141Z,7.47
2019-02-27T23:43:21.335Z,8.13
2019-02-27T23:45:54.617Z,8.67
2019-02-27T23:48:27.939Z,8.03
2019-02-27T23:51:01.219Z,8.60
2019-02-27T23:53:34.554Z,8.50
2019-02-27T23:56:07.890Z,8.63
2019-02-27T23:58:41.210Z,9.23
